Time;durP1;ratioP1;P1;durP2;ratioP2;P2;SDS_P1;SDS_P2;PMS_P1;PMS_P2;Temp;Humidity;BMP_temperature;BMP_pressure;BME280_temperature;BME280_humidity;BME280_pressure;Samples;Min_cycle;Max_cycle;Signal;HPM_P1;HPM_P2
2023/05/07 00:00:07;;;;;;;13.02;2.28;;;21.70;75.80;;;;;;4988154;28;20035;-54
2023/05/07 00:02:33;;;;;;;9.35;2.10;;;21.70;75.90;;;;;;4986242;28;20015;-54
2023/05/07 00:04:59;;;;;;;5.75;1.90;;;21.60;75.90;;;;;;4987972;28;20030;-54
2023/05/07 00:07:24;;;;;;;5.63;1.73;;;21.60;76.10;;;;;;4970642;28;20058;-54
2023/05/07 00:09:50;;;;;;;5.60;2.22;;;21.50;76.30;;;;;;4988388;28;20034;-54
2023/05/07 00:12:15;;;;;;;9.55;2.13;;;21.50;76.10;;;;;;4985074;28;20038;-54
2023/05/07 00:14:41;;;;;;;3.65;1.90;;;21.50;76.10;;;;;;4985580;28;20034;-54
2023/05/07 00:17:07;;;;;;;7.95;2.10;;;21.50;76.30;;;;;;4987595;28;20104;-54
2023/05/07 00:19:32;;;;;;;6.65;2.00;;;21.50;76.40;;;;;;4986094;28;20054;-54
2023/05/07 00:21:58;;;;;;;6.68;2.22;;;21.50;76.30;;;;;;4987832;28;20026;-53
2023/05/07 00:24:23;;;;;;;6.03;1.80;;;21.50;76.40;;;;;;4986199;28;20030;-54
2023/05/07 00:26:49;;;;;;;7.35;2.17;;;21.40;76.30;;;;;;4985611;28;20027;-54
2023/05/07 00:29:14;;;;;;;4.20;1.90;;;21.40;76.40;;;;;;4985214;28;20042;-54
2023/05/07 00:31:40;;;;;;;5.10;1.80;;;21.40;76.60;;;;;;4986046;28;20022;-54
2023/05/07 00:34:06;;;;;;;3.78;1.95;;;21.30;76.50;;;;;;4984364;28;20469;-54
2023/05/07 00:36:31;;;;;;;8.75;2.00;;;21.30;76.60;;;;;;4969194;28;20488;-54
2023/05/07 00:38:58;;;;;;;8.70;2.17;;;21.30;76.70;;;;;;4986071;28;20471;-54
2023/05/07 00:41:24;;;;;;;8.73;2.03;;;21.30;76.70;;;;;;4986133;28;20081;-54
2023/05/07 00:43:51;;;;;;;9.52;1.73;;;21.20;76.80;;;;;;4986025;28;20023;-53
2023/05/07 00:46:17;;;;;;;8.43;1.90;;;21.20;76.80;;;;;;4987100;28;20050;-54
2023/05/07 00:48:42;;;;;;;5.93;1.90;;;21.10;76.80;;;;;;4985755;28;20022;-53
2023/05/07 00:51:09;;;;;;;4.43;1.75;;;21.20;77.00;;;;;;4983824;28;20042;-54
2023/05/07 00:53:34;;;;;;;4.28;1.95;;;21.10;77.10;;;;;;5017853;28;20035;-54
2023/05/07 00:56:00;;;;;;;4.38;1.77;;;21.10;77.10;;;;;;4986143;28;20039;-53
2023/05/07 00:58:26;;;;;;;5.22;2.15;;;21.10;77.00;;;;;;4986856;28;20026;-54
2023/05/07 01:00:51;;;;;;;5.38;2.25;;;21.00;77.20;;;;;;4986298;28;20050;-54
2023/05/07 01:03:17;;;;;;;7.80;1.90;;;21.00;77.30;;;;;;4986396;28;20033;-54
2023/05/07 01:05:42;;;;;;;6.00;1.90;;;21.00;77.30;;;;;;4986645;28;20090;-54
2023/05/07 01:08:08;;;;;;;3.53;1.48;;;21.00;77.30;;;;;;4985616;28;20031;-54
2023/05/07 01:10:33;;;;;;;5.72;2.03;;;20.90;77.40;;;;;;4985095;28;20086;-54
2023/05/07 01:13:00;;;;;;;4.30;1.70;;;20.90;77.50;;;;;;4984269;28;20038;-54
2023/05/07 01:15:25;;;;;;;4.53;1.90;;;20.90;77.50;;;;;;4985521;28;20031;-54
2023/05/07 01:17:51;;;;;;;5.32;1.52;;;20.80;77.60;;;;;;4986618;28;20027;-54
2023/05/07 01:20:17;;;;;;;2.92;1.60;;;20.80;77.80;;;;;;4985468;28;20171;-54
2023/05/07 01:22:43;;;;;;;5.30;1.75;;;20.80;77.80;;;;;;4985276;28;20360;-54
2023/05/07 01:25:08;;;;;;;5.00;1.70;;;20.80;77.90;;;;;;4985128;28;20050;-54
2023/05/07 01:27:36;;;;;;;7.28;1.90;;;20.70;77.90;;;;;;4986534;28;20023;-54
2023/05/07 01:30:01;;;;;;;3.85;1.60;;;20.70;77.90;;;;;;4983917;28;20129;-53
2023/05/07 01:32:46;;;;;;;3.42;1.80;;;20.70;78.00;;;;;;4965097;28;20086;-54
2023/05/07 01:35:14;;;;;;;2.67;1.85;;;20.60;77.90;;;;;;4965024;29;20103;-54
2023/05/07 01:37:39;;;;;;;4.38;1.70;;;20.60;78.00;;;;;;4968189;28;20055;-54
2023/05/07 01:40:07;;;;;;;9.27;1.92;;;20.60;78.20;;;;;;4982153;28;20031;-54
2023/05/07 01:42:32;;;;;;;2.78;1.65;;;20.60;78.10;;;;;;4985894;28;20053;-54
2023/05/07 01:44:58;;;;;;;2.28;1.80;;;20.60;78.20;;;;;;5000769;28;20371;-54
2023/05/07 01:47:24;;;;;;;5.22;1.77;;;20.50;78.10;;;;;;4984084;28;20031;-54
2023/05/07 01:49:49;;;;;;;2.58;1.63;;;20.50;78.30;;;;;;4983883;28;20089;-54
2023/05/07 01:52:15;;;;;;;4.20;1.77;;;20.50;78.30;;;;;;4984721;28;20034;-54
2023/05/07 01:54:40;;;;;;;6.38;2.00;;;20.50;78.40;;;;;;4984477;28;20054;-54
2023/05/07 01:57:06;;;;;;;2.35;1.52;;;20.40;78.60;;;;;;4986771;28;20073;-54
2023/05/07 01:59:31;;;;;;;5.68;1.92;;;20.40;78.40;;;;;;4985736;28;20027;-54
2023/05/07 02:01:57;;;;;;;3.03;1.52;;;20.40;78.40;;;;;;4984198;28;20027;-54
2023/05/07 02:04:23;;;;;;;3.58;1.55;;;20.40;78.40;;;;;;4985522;28;20082;-54
2023/05/07 02:06:48;;;;;;;5.20;1.60;;;20.40;78.50;;;;;;5016667;28;20038;-54
2023/05/07 02:09:14;;;;;;;3.65;1.52;;;20.40;78.60;;;;;;4985118;28;20033;-54
2023/05/07 02:11:40;;;;;;;4.32;1.50;;;20.30;78.60;;;;;;4985598;28;20090;-54
2023/05/07 02:14:05;;;;;;;4.70;1.77;;;20.30;78.60;;;;;;4985807;28;20035;-54
2023/05/07 02:16:31;;;;;;;2.58;1.58;;;20.30;78.70;;;;;;4985926;28;20121;-54
2023/05/07 02:18:57;;;;;;;3.97;1.70;;;20.30;78.70;;;;;;4985513;28;20031;-54
2023/05/07 02:21:23;;;;;;;6.28;1.90;;;20.20;78.90;;;;;;4984356;28;20035;-53
2023/05/07 02:23:49;;;;;;;3.92;1.50;;;20.20;78.80;;;;;;4984740;28;20094;-54
2023/05/07 02:26:14;;;;;;;3.78;1.73;;;20.20;79.00;;;;;;4984628;28;20501;-54
2023/05/07 02:28:40;;;;;;;3.15;1.52;;;20.10;78.90;;;;;;4984828;28;20121;-54
2023/05/07 02:31:05;;;;;;;5.07;1.40;;;20.10;79.00;;;;;;4984387;28;20230;-54
2023/05/07 02:33:31;;;;;;;5.80;1.50;;;20.10;79.10;;;;;;4985834;28;20389;-53
2023/05/07 02:35:56;;;;;;;3.58;1.60;;;20.10;79.10;;;;;;4985596;28;20088;-54
2023/05/07 02:38:22;;;;;;;4.85;1.88;;;20.10;79.20;;;;;;4984045;28;20027;-54
2023/05/07 02:40:48;;;;;;;2.67;1.55;;;20.00;79.20;;;;;;4982363;28;20032;-54
2023/05/07 02:43:13;;;;;;;2.70;1.33;;;20.00;79.40;;;;;;4999704;28;20054;-54
2023/05/07 02:45:39;;;;;;;4.63;1.85;;;19.90;79.30;;;;;;4985502;28;20034;-54
2023/05/07 02:48:06;;;;;;;6.07;1.70;;;20.00;79.50;;;;;;4983902;28;20077;-54
2023/05/07 02:50:32;;;;;;;3.47;1.60;;;19.90;79.40;;;;;;4985093;28;20119;-54
2023/05/07 02:52:58;;;;;;;4.28;1.80;;;19.90;79.50;;;;;;5019454;28;20030;-54
2023/05/07 02:55:23;;;;;;;4.03;1.50;;;19.90;79.60;;;;;;4987950;28;20121;-54
2023/05/07 02:57:49;;;;;;;5.25;1.55;;;19.80;79.70;;;;;;4988615;28;20039;-54
2023/05/07 03:00:18;;;;;;;4.10;1.75;;;19.80;79.60;;;;;;4986351;28;20031;-54
2023/05/07 03:02:44;;;;;;;5.55;1.63;;;19.80;79.60;;;;;;4987392;28;20031;-54
2023/05/07 03:05:10;;;;;;;4.25;1.67;;;19.80;79.70;;;;;;4987323;28;20463;-53
2023/05/07 03:07:36;;;;;;;3.47;1.70;;;19.80;79.80;;;;;;4987352;28;20035;-54
2023/05/07 03:10:02;;;;;;;5.18;1.55;;;19.70;79.70;;;;;;4988505;28;20484;-54
2023/05/07 03:12:27;;;;;;;4.45;1.58;;;19.80;79.80;;;;;;4986947;28;20066;-54
2023/05/07 03:14:53;;;;;;;3.17;1.67;;;19.70;79.90;;;;;;4988445;28;20046;-54
2023/05/07 03:17:18;;;;;;;3.78;1.25;;;19.70;79.90;;;;;;4987074;28;20046;-54
2023/05/07 03:19:44;;;;;;;4.72;1.98;;;19.60;79.90;;;;;;4988255;28;20035;-56
2023/05/07 03:22:10;;;;;;;3.72;1.25;;;19.70;80.00;;;;;;4988358;28;20031;-54
2023/05/07 03:24:35;;;;;;;3.65;1.55;;;19.60;80.00;;;;;;4970908;28;20445;-54
2023/05/07 03:27:01;;;;;;;2.55;1.23;;;19.60;80.10;;;;;;4987496;28;20468;-54
2023/05/07 03:29:26;;;;;;;2.97;1.50;;;19.60;80.10;;;;;;4987308;28;20498;-54
2023/05/07 03:31:52;;;;;;;3.92;1.60;;;19.50;80.20;;;;;;4986583;28;20023;-54
2023/05/07 03:34:21;;;;;;;2.33;1.42;;;19.50;80.20;;;;;;4987292;28;20025;-54
2023/05/07 03:36:50;;;;;;;3.63;1.60;;;19.50;80.40;;;;;;4988656;28;20114;-54
2023/05/07 03:39:15;;;;;;;3.83;1.58;;;19.50;80.40;;;;;;4970787;28;20502;-54
2023/05/07 03:41:41;;;;;;;5.22;1.52;;;19.40;80.40;;;;;;4988411;28;20035;-54
2023/05/07 03:44:07;;;;;;;2.28;1.40;;;19.50;80.50;;;;;;4988126;28;20618;-54
2023/05/07 03:46:33;;;;;;;3.92;1.48;;;19.40;80.60;;;;;;4986975;28;20034;-54
2023/05/07 03:48:58;;;;;;;5.93;1.75;;;19.40;80.60;;;;;;4986598;28;20120;-54
2023/05/07 03:51:25;;;;;;;6.18;1.77;;;19.30;80.70;;;;;;4985957;28;20035;-54
2023/05/07 03:53:52;;;;;;;3.45;1.35;;;19.40;80.80;;;;;;4986564;28;20034;-54
2023/05/07 03:56:18;;;;;;;3.65;1.40;;;19.30;80.70;;;;;;4967289;28;20039;-54
2023/05/07 03:58:44;;;;;;;2.47;1.60;;;19.30;80.80;;;;;;4975059;28;20027;-54
2023/05/07 04:01:09;;;;;;;1.88;1.38;;;19.30;80.90;;;;;;4987329;28;20035;-54
2023/05/07 04:03:35;;;;;;;2.58;1.50;;;19.20;80.80;;;;;;4986203;28;20022;-54
2023/05/07 04:06:00;;;;;;;3.08;1.55;;;19.20;80.90;;;;;;4986989;28;20069;-54
2023/05/07 04:08:26;;;;;;;2.78;1.70;;;19.20;81.00;;;;;;4985335;28;20030;-54
2023/05/07 04:10:58;;;;;;;2.85;1.33;;;19.20;81.00;;;;;;5001946;28;20097;-54
2023/05/07 04:13:24;;;;;;;1.83;1.40;;;19.20;81.00;;;;;;4985449;28;20031;-54
2023/05/07 04:15:51;;;;;;;2.20;1.45;;;19.10;81.10;;;;;;4987699;28;20039;-54
2023/05/07 04:18:16;;;;;;;3.88;1.48;;;19.10;81.10;;;;;;4985378;28;20027;-54
2023/05/07 04:20:42;;;;;;;2.67;1.60;;;19.10;81.10;;;;;;4985424;28;20333;-54
2023/05/07 04:23:07;;;;;;;4.85;1.27;;;19.10;81.30;;;;;;4987207;28;20031;-54
2023/05/07 04:25:33;;;;;;;3.15;1.42;;;19.10;81.20;;;;;;4967807;28;20409;-54
2023/05/07 04:27:59;;;;;;;4.10;1.58;;;19.00;81.30;;;;;;4981093;28;20031;-53
2023/05/07 04:30:24;;;;;;;2.47;1.40;;;19.10;81.30;;;;;;4966686;29;20035;-54
2023/05/07 04:32:50;;;;;;;4.00;1.50;;;19.00;81.20;;;;;;4977319;28;20077;-54
2023/05/07 04:35:16;;;;;;;1.90;1.30;;;19.00;81.40;;;;;;4986304;28;20041;-54
2023/05/07 04:37:42;;;;;;;2.92;1.40;;;19.00;81.40;;;;;;4985089;28;20035;-53
2023/05/07 04:40:07;;;;;;;1.48;1.35;;;18.90;81.50;;;;;;4986769;28;20085;-54
2023/05/07 04:42:33;;;;;;;4.57;1.88;;;18.90;81.50;;;;;;4984967;28;20023;-54
2023/05/07 04:44:58;;;;;;;4.05;1.58;;;18.90;81.60;;;;;;4986782;28;20507;-54
2023/05/07 04:47:24;;;;;;;3.80;1.42;;;18.90;81.50;;;;;;5017789;28;20030;-54
2023/05/07 04:49:49;;;;;;;2.65;1.50;;;18.90;81.50;;;;;;4985022;28;20483;-54
2023/05/07 04:52:15;;;;;;;2.13;1.23;;;18.90;81.50;;;;;;4986820;28;20031;-53
2023/05/07 04:54:41;;;;;;;3.03;1.50;;;18.90;81.70;;;;;;4986887;28;20035;-54
2023/05/07 04:57:06;;;;;;;2.72;1.33;;;18.90;81.70;;;;;;4985601;28;20026;-54
2023/05/07 04:59:32;;;;;;;2.88;1.30;;;18.90;81.50;;;;;;4984435;28;20023;-54
2023/05/07 05:01:58;;;;;;;2.28;1.30;;;18.90;81.50;;;;;;4985362;28;20035;-54
2023/05/07 05:04:23;;;;;;;1.25;1.15;;;18.90;81.50;;;;;;4985306;28;20106;-54
2023/05/07 05:06:49;;;;;;;4.85;1.80;;;18.90;81.60;;;;;;4986623;28;20053;-54
2023/05/07 05:09:15;;;;;;;3.08;1.63;;;18.80;81.60;;;;;;4986348;28;20054;-54
2023/05/07 05:11:41;;;;;;;3.58;1.35;;;18.80;81.60;;;;;;4984156;28;20039;-54
2023/05/07 05:14:06;;;;;;;2.42;1.45;;;18.80;81.60;;;;;;4983735;28;20045;-53
2023/05/07 05:16:32;;;;;;;2.22;1.45;;;18.80;81.70;;;;;;4984432;28;20090;-54
2023/05/07 05:18:58;;;;;;;3.45;1.38;;;18.80;81.60;;;;;;4984698;28;20023;-54
2023/05/07 05:21:23;;;;;;;3.15;1.30;;;18.80;81.60;;;;;;4985085;28;20469;-54
2023/05/07 05:23:49;;;;;;;1.52;1.33;;;18.80;81.70;;;;;;4985403;28;20078;-54
2023/05/07 05:26:14;;;;;;;2.03;1.33;;;18.80;81.70;;;;;;4984735;28;20083;-53
2023/05/07 05:28:40;;;;;;;2.00;1.48;;;18.80;81.80;;;;;;4985024;28;20026;-54
2023/05/07 05:31:06;;;;;;;4.85;1.50;;;18.70;81.70;;;;;;4984547;28;20476;-54
2023/05/07 05:33:31;;;;;;;3.05;1.77;;;18.80;81.70;;;;;;4983284;28;20034;-54
2023/05/07 05:35:57;;;;;;;3.47;1.50;;;18.80;81.80;;;;;;4985573;28;20075;-55
2023/05/07 05:38:22;;;;;;;2.42;1.55;;;18.70;81.80;;;;;;4984781;28;20045;-54
2023/05/07 05:40:48;;;;;;;3.80;1.60;;;18.70;81.80;;;;;;4985608;28;20061;-54
2023/05/07 05:43:14;;;;;;;3.20;1.30;;;18.70;81.90;;;;;;4984694;28;20038;-54
2023/05/07 05:45:39;;;;;;;1.95;1.20;;;18.70;81.90;;;;;;4984555;28;20031;-54
2023/05/07 05:48:05;;;;;;;1.40;1.10;;;18.70;81.70;;;;;;4983625;28;20472;-54
2023/05/07 05:50:31;;;;;;;3.30;1.55;;;18.70;81.80;;;;;;4983663;28;20427;-54
2023/05/07 05:52:57;;;;;;;2.80;1.50;;;18.70;81.70;;;;;;4984218;28;20203;-53
2023/05/07 05:55:23;;;;;;;2.05;1.27;;;18.70;81.80;;;;;;4985781;28;20038;-54
2023/05/07 05:57:49;;;;;;;2.95;1.50;;;18.70;81.80;;;;;;4984107;28;20027;-54
2023/05/07 06:00:15;;;;;;;2.45;1.45;;;18.70;81.80;;;;;;4985654;28;20061;-54
2023/05/07 06:02:42;;;;;;;6.55;1.77;;;18.70;81.80;;;;;;4984187;28;20046;-54
2023/05/07 06:05:08;;;;;;;2.17;1.70;;;18.70;81.80;;;;;;5014461;28;20484;-54
2023/05/07 06:07:34;;;;;;;4.82;2.28;;;18.70;81.80;;;;;;4985259;28;20026;-54
2023/05/07 06:10:00;;;;;;;2.53;1.42;;;18.70;81.80;;;;;;4984035;28;20031;-54
2023/05/07 06:12:26;;;;;;;3.08;1.60;;;18.70;81.80;;;;;;4999698;28;20038;-54
2023/05/07 06:14:52;;;;;;;3.03;1.60;;;18.70;81.80;;;;;;4984155;28;20076;-54
2023/05/07 06:17:17;;;;;;;2.92;1.60;;;18.70;81.90;;;;;;4983886;28;20491;-54
2023/05/07 06:19:43;;;;;;;4.57;1.92;;;18.70;81.90;;;;;;4983336;28;20045;-54
2023/05/07 06:22:08;;;;;;;2.63;1.80;;;18.70;82.10;;;;;;4984747;28;20366;-54
2023/05/07 06:24:34;;;;;;;2.83;1.60;;;18.70;81.90;;;;;;4985304;28;20049;-54
2023/05/07 06:26:59;;;;;;;2.45;1.58;;;18.70;82.00;;;;;;4985664;28;20019;-54
2023/05/07 06:29:30;;;;;;;4.05;1.60;;;18.70;81.90;;;;;;4987116;28;20114;-54
2023/05/07 06:31:55;;;;;;;4.82;1.83;;;18.70;81.90;;;;;;4989511;28;20054;-54
2023/05/07 06:34:21;;;;;;;6.88;1.60;;;18.70;82.00;;;;;;4989133;28;20042;-54
2023/05/07 06:36:46;;;;;;;3.22;1.80;;;18.70;82.10;;;;;;4989552;28;20031;-53
2023/05/07 06:39:12;;;;;;;2.15;1.77;;;18.70;82.10;;;;;;4986884;28;20209;-54
2023/05/07 06:41:38;;;;;;;2.60;1.73;;;18.70;82.10;;;;;;4986815;28;20043;-54
2023/05/07 06:44:04;;;;;;;3.58;1.95;;;18.70;82.10;;;;;;4989300;28;20130;-54
2023/05/07 06:46:30;;;;;;;2.70;1.60;;;18.70;82.10;;;;;;4988177;28;20135;-53
2023/05/07 06:48:56;;;;;;;4.10;1.60;;;18.70;82.20;;;;;;4988693;28;20040;-54
2023/05/07 06:51:22;;;;;;;1.75;1.40;;;18.70;82.20;;;;;;4971723;28;20031;-53
2023/05/07 06:53:47;;;;;;;3.28;1.67;;;18.70;82.10;;;;;;4988102;28;20476;-54
2023/05/07 06:56:13;;;;;;;2.85;2.05;;;18.70;82.10;;;;;;4989178;28;20117;-54
2023/05/07 06:58:38;;;;;;;4.25;1.55;;;18.70;82.20;;;;;;4987070;28;20034;-54
2023/05/07 07:01:04;;;;;;;6.05;1.88;;;18.70;82.10;;;;;;4986392;28;20045;-54
2023/05/07 07:03:30;;;;;;;5.28;1.77;;;18.70;82.10;;;;;;4987720;28;20061;-54
2023/05/07 07:05:55;;;;;;;7.05;2.20;;;18.70;82.80;;;;;;4986668;28;20053;-54
2023/05/07 07:08:21;;;;;;;4.32;1.95;;;18.70;82.00;;;;;;4987606;28;20088;-54
2023/05/07 07:10:47;;;;;;;2.10;1.67;;;18.70;82.10;;;;;;4987302;28;20034;-54
2023/05/07 07:13:13;;;;;;;3.60;1.65;;;18.70;82.10;;;;;;4986838;28;20038;-54
2023/05/07 07:15:38;;;;;;;3.97;1.70;;;18.70;82.00;;;;;;5003356;28;20034;-54
2023/05/07 07:18:04;;;;;;;6.63;1.67;;;18.70;82.00;;;;;;4967776;28;20031;-54
2023/05/07 07:20:30;;;;;;;9.43;1.85;;;18.70;82.00;;;;;;4986518;28;20038;-54
2023/05/07 07:22:55;;;;;;;3.55;1.70;;;18.70;81.90;;;;;;4986444;28;20034;-54
2023/05/07 07:25:21;;;;;;;4.43;1.60;;;18.70;81.90;;;;;;4987680;28;20031;-54
2023/05/07 07:27:46;;;;;;;9.63;1.92;;;18.70;82.00;;;;;;4987564;28;20068;-54
2023/05/07 07:30:12;;;;;;;9.88;2.08;;;18.70;82.00;;;;;;4986969;28;20030;-54
2023/05/07 07:32:37;;;;;;;3.20;1.70;;;18.70;81.90;;;;;;4986578;28;20049;-54
2023/05/07 07:35:04;;;;;;;3.47;1.50;;;18.70;81.80;;;;;;4987808;28;20038;-54
2023/05/07 07:37:30;;;;;;;3.65;1.90;;;18.70;81.70;;;;;;4986487;28;20023;-54
2023/05/07 07:39:55;;;;;;;3.45;1.85;;;18.70;81.80;;;;;;4986475;28;20493;-54
2023/05/07 07:42:21;;;;;;;7.68;1.80;;;18.70;81.70;;;;;;4986568;28;20060;-54
2023/05/07 07:44:46;;;;;;;6.55;1.80;;;18.70;81.70;;;;;;4986640;28;20034;-54
2023/05/07 07:47:12;;;;;;;2.33;1.65;;;18.80;81.70;;;;;;4987138;28;20041;-53
2023/05/07 07:49:37;;;;;;;8.15;1.98;;;18.70;81.60;;;;;;4988437;28;20039;-54
2023/05/07 07:52:03;;;;;;;11.48;1.92;;;18.80;81.70;;;;;;4986509;28;20117;-54
2023/05/07 07:54:29;;;;;;;4.00;1.73;;;18.80;81.90;;;;;;4988058;28;20030;-54
2023/05/07 07:56:54;;;;;;;3.08;1.50;;;18.80;82.40;;;;;;4986465;28;20022;-54
2023/05/07 07:59:20;;;;;;;4.57;1.60;;;18.80;82.70;;;;;;4987169;28;20046;-54
2023/05/07 08:01:48;;;;;;;5.85;1.85;;;18.80;83.20;;;;;;4986742;28;20054;-54
2023/05/07 08:04:13;;;;;;;2.38;1.73;;;18.80;83.30;;;;;;4987414;28;20082;-54
2023/05/07 08:06:39;;;;;;;5.97;2.08;;;18.80;83.70;;;;;;4987657;28;20038;-54
2023/05/07 08:09:04;;;;;;;5.03;1.50;;;18.80;84.40;;;;;;4986295;28;20472;-54
2023/05/07 08:11:30;;;;;;;2.42;1.50;;;18.80;84.50;;;;;;4985922;28;20103;-54
2023/05/07 08:13:56;;;;;;;4.47;1.85;;;18.80;84.80;;;;;;4985407;28;20039;-54
2023/05/07 08:16:21;;;;;;;8.13;1.95;;;18.80;84.90;;;;;;4987217;28;20049;-54
2023/05/07 08:18:47;;;;;;;6.88;1.73;;;18.80;84.80;;;;;;4985932;28;20035;-54
2023/05/07 08:21:12;;;;;;;6.80;2.20;;;18.80;84.90;;;;;;4986039;28;20031;-54
2023/05/07 08:23:38;;;;;;;8.18;1.80;;;18.80;85.00;;;;;;4985694;28;20107;-54
2023/05/07 08:26:03;;;;;;;6.07;2.00;;;18.90;85.00;;;;;;4985372;28;20035;-54
2023/05/07 08:28:29;;;;;;;23.83;2.60;;;18.90;85.20;;;;;;4986580;28;20057;-53
2023/05/07 08:30:56;;;;;;;13.30;2.47;;;18.90;85.00;;;;;;4984526;28;20031;-53
2023/05/07 08:33:21;;;;;;;18.27;2.90;;;18.90;85.10;;;;;;4985640;28;20173;-54
2023/05/07 08:35:47;;;;;;;20.95;3.15;;;19.00;85.40;;;;;;4985490;28;20043;-53
2023/05/07 08:38:13;;;;;;;27.65;3.35;;;19.00;85.10;;;;;;4985631;28;20033;-54
2023/05/07 08:40:39;;;;;;;33.72;5.20;;;19.00;85.00;;;;;;4985374;28;20369;-54
2023/05/07 08:43:07;;;;;;;44.53;6.65;;;19.00;85.00;;;;;;4986520;28;20057;-54
2023/05/07 08:45:33;;;;;;;29.60;4.93;;;19.10;85.30;;;;;;4986077;28;20039;-54
2023/05/07 08:48:00;;;;;;;44.67;5.15;;;19.10;85.40;;;;;;4985144;28;20089;-54
2023/05/07 08:50:25;;;;;;;39.78;5.18;;;19.10;85.70;;;;;;4982644;28;20060;-54
2023/05/07 08:52:51;;;;;;;34.40;4.93;;;19.10;85.60;;;;;;4967632;28;20032;-54
2023/05/07 08:55:16;;;;;;;24.02;4.35;;;19.20;85.40;;;;;;4999541;28;20085;-54
2023/05/07 08:57:42;;;;;;;42.53;6.18;;;19.30;85.20;;;;;;4978399;28;20106;-54
2023/05/07 09:00:09;;;;;;;47.00;6.55;;;19.30;85.00;;;;;;4985371;28;20037;-54
2023/05/07 09:02:36;;;;;;;60.40;8.02;;;19.30;85.20;;;;;;4978043;28;20048;-54
2023/05/07 09:05:01;;;;;;;120.45;13.63;;;19.40;85.60;;;;;;4983532;28;20067;-54
2023/05/07 09:07:27;;;;;;;116.85;14.30;;;19.40;85.60;;;;;;4984769;28;20038;-54
2023/05/07 09:09:54;;;;;;;159.27;17.83;;;19.40;85.90;;;;;;4984543;28;20053;-54
2023/05/07 09:12:20;;;;;;;92.55;11.65;;;19.50;86.20;;;;;;4984458;28;20027;-54
2023/05/07 09:14:46;;;;;;;140.15;13.52;;;19.50;86.20;;;;;;4984161;28;20042;-54
2023/05/07 09:17:12;;;;;;;89.35;11.27;;;19.50;86.30;;;;;;4984130;28;20026;-54
2023/05/07 09:19:38;;;;;;;90.35;11.18;;;19.60;86.70;;;;;;4985198;28;20031;-54
2023/05/07 09:22:04;;;;;;;79.50;10.90;;;19.60;86.70;;;;;;4984612;28;20023;-54
2023/05/07 09:24:34;;;;;;;91.10;11.20;;;19.70;86.70;;;;;;4983600;28;20019;-54
2023/05/07 09:27:02;;;;;;;109.35;13.30;;;19.70;87.40;;;;;;4966707;28;20019;-54
2023/05/07 09:29:35;;;;;;;174.48;22.02;;;19.80;87.50;;;;;;4967854;28;20026;-54
2023/05/07 09:32:05;;;;;;;97.38;12.55;;;19.90;87.20;;;;;;4984001;28;20050;-54
2023/05/07 09:34:30;;;;;;;94.38;13.02;;;19.90;87.20;;;;;;4983466;28;20077;-54
2023/05/07 09:36:56;;;;;;;121.30;12.73;;;19.90;87.20;;;;;;4982626;28;20050;-54
2023/05/07 09:39:25;;;;;;;124.18;16.63;;;20.00;87.30;;;;;;4983800;28;20086;-54
2023/05/07 09:41:52;;;;;;;130.50;15.20;;;20.00;87.20;;;;;;4981864;28;20058;-54
2023/05/07 09:44:18;;;;;;;105.57;13.18;;;20.10;87.10;;;;;;4984356;28;20026;-54
2023/05/07 09:46:46;;;;;;;116.93;12.70;;;20.10;86.90;;;;;;4982105;28;20470;-54
2023/05/07 09:49:18;;;;;;;113.97;13.13;;;20.20;86.70;;;;;;4985713;28;20035;-54
2023/05/07 09:51:47;;;;;;;136.10;17.10;;;20.20;86.80;;;;;;4983343;28;20062;-54
2023/05/07 09:54:13;;;;;;;112.32;14.13;;;20.30;86.70;;;;;;4985501;28;20065;-54
2023/05/07 09:56:38;;;;;;;115.18;14.98;;;20.30;86.80;;;;;;4966132;28;20047;-54
2023/05/07 09:59:04;;;;;;;127.40;16.25;;;20.30;86.60;;;;;;4984040;28;20030;-54
2023/05/07 10:01:31;;;;;;;159.35;19.08;;;20.40;86.50;;;;;;4983195;28;20463;-53
2023/05/07 10:03:56;;;;;;;133.15;16.83;;;20.40;86.50;;;;;;4982680;28;20058;-54
2023/05/07 10:06:24;;;;;;;145.80;16.80;;;20.50;86.40;;;;;;4984506;28;20038;-54
2023/05/07 10:08:50;;;;;;;136.48;15.88;;;20.50;86.10;;;;;;4965971;28;20046;-54
2023/05/07 10:11:15;;;;;;;122.80;15.27;;;20.60;85.90;;;;;;4981548;28;20030;-54
2023/05/07 10:13:41;;;;;;;99.55;13.43;;;20.60;85.80;;;;;;4983521;28;20037;-54
2023/05/07 10:16:07;;;;;;;264.83;26.70;;;20.60;85.60;;;;;;4983566;28;20074;-54
2023/05/07 10:18:33;;;;;;;106.75;15.68;;;20.70;86.30;;;;;;4989154;28;20459;-53
2023/05/07 10:21:08;;;;;;;114.50;12.30;;;20.70;85.40;;;;;;4976916;28;20034;-54
2023/05/07 10:23:33;;;;;;;105.88;13.82;;;20.70;84.90;;;;;;4981968;28;20023;-54
2023/05/07 10:26:03;;;;;;;140.93;12.30;;;20.80;84.90;;;;;;4983045;28;20114;-54
2023/05/07 10:28:30;;;;;;;111.60;12.10;;;20.80;84.50;;;;;;4966452;28;20046;-54
2023/05/07 10:31:11;;;;;;;101.90;12.98;;;20.80;84.50;;;;;;4981296;28;20031;-54
2023/05/07 10:33:37;;;;;;;90.15;12.15;;;20.80;84.60;;;;;;4967876;28;20350;-54
2023/05/07 10:36:04;;;;;;;101.90;10.52;;;20.90;84.30;;;;;;4994776;28;20134;-54
2023/05/07 10:38:30;;;;;;;78.88;10.38;;;20.90;83.90;;;;;;4990200;28;20023;-54
2023/05/07 10:40:55;;;;;;;63.80;9.05;;;20.90;84.00;;;;;;4983167;28;20023;-54
2023/05/07 10:43:21;;;;;;;85.63;9.23;;;20.90;83.80;;;;;;4982179;28;20027;-54
2023/05/07 10:46:20;;;;;;;116.18;12.02;;;20.90;83.60;;;;;;4983872;28;20067;-54
2023/05/07 10:49:00;;;;;;;69.40;9.02;;;20.90;83.40;;;;;;4976083;28;20110;-54
2023/05/07 10:51:26;;;;;;;65.53;9.25;;;20.90;83.30;;;;;;4982293;28;20026;-54
2023/05/07 10:54:14;;;;;;;82.88;8.82;;;21.00;83.40;;;;;;4983075;28;20053;-54
2023/05/07 10:56:42;;;;;;;68.50;7.70;;;21.00;83.40;;;;;;4984544;28;20039;-54
2023/05/07 10:59:20;;;;;;;80.38;11.10;;;21.00;83.40;;;;;;4983692;28;20046;-54
2023/05/07 11:01:57;;;;;;;127.28;13.52;;;21.10;83.40;;;;;;4984924;28;20034;-54
2023/05/07 11:04:31;;;;;;;93.00;10.98;;;21.10;83.30;;;;;;4983189;28;20038;-54
2023/05/07 11:07:06;;;;;;;77.90;11.20;;;21.00;82.90;;;;;;4978148;28;20097;-53
2023/05/07 11:09:53;;;;;;;79.35;9.77;;;21.20;82.80;;;;;;4984677;28;20062;-54
2023/05/07 11:12:37;;;;;;;83.18;9.30;;;21.20;82.40;;;;;;4982284;28;20058;-54
2023/05/07 11:15:03;;;;;;;99.50;12.23;;;21.20;82.00;;;;;;4987678;28;20053;-53
2023/05/07 11:17:31;;;;;;;86.68;10.73;;;21.20;81.90;;;;;;4980844;28;20047;-54
2023/05/07 11:19:57;;;;;;;76.78;9.70;;;21.30;81.90;;;;;;4969240;28;20505;-54
2023/05/07 11:22:32;;;;;;;71.90;10.70;;;21.30;81.60;;;;;;4984288;28;20022;-54
2023/05/07 11:25:05;;;;;;;97.85;10.52;;;21.40;81.40;;;;;;5018497;28;20098;-54
2023/05/07 11:27:31;;;;;;;106.25;11.32;;;21.50;81.40;;;;;;4969821;28;20039;-54
2023/05/07 11:29:56;;;;;;;81.82;10.45;;;21.50;81.30;;;;;;4982593;28;20037;-54
2023/05/07 11:32:26;;;;;;;98.78;11.55;;;21.60;81.20;;;;;;4982843;28;20027;-54
2023/05/07 11:34:53;;;;;;;127.15;13.45;;;21.70;81.10;;;;;;4983177;28;20464;-54
2023/05/07 11:37:18;;;;;;;130.43;14.70;;;21.80;81.10;;;;;;4983106;28;20530;-54
2023/05/07 11:39:44;;;;;;;141.57;15.95;;;21.80;81.00;;;;;;4982792;28;20027;-54
2023/05/07 11:42:28;;;;;;;146.00;15.15;;;21.90;81.10;;;;;;4981342;28;20665;-54
2023/05/07 11:44:54;;;;;;;115.55;13.70;;;21.90;81.20;;;;;;4979182;28;20033;-53
2023/05/07 11:47:20;;;;;;;125.63;15.43;;;22.00;80.70;;;;;;4983603;28;20483;-54
2023/05/07 11:49:50;;;;;;;148.88;16.88;;;22.10;80.60;;;;;;4983950;28;20087;-54
2023/05/07 11:52:16;;;;;;;152.68;17.95;;;22.10;80.40;;;;;;4979479;28;20046;-54
2023/05/07 11:54:43;;;;;;;152.65;17.25;;;22.20;80.40;;;;;;4997577;28;20027;-54
2023/05/07 11:57:14;;;;;;;104.47;14.35;;;22.30;80.50;;;;;;4981533;28;20103;-54
2023/05/07 11:59:40;;;;;;;99.65;13.35;;;22.30;80.20;;;;;;4960793;28;20027;-54
2023/05/07 12:02:07;;;;;;;140.68;15.93;;;22.40;79.90;;;;;;4996432;28;20167;-54
2023/05/07 12:04:32;;;;;;;100.72;12.10;;;22.50;79.50;;;;;;4981185;28;20081;-54
2023/05/07 12:06:58;;;;;;;121.10;14.43;;;22.50;79.40;;;;;;4980795;28;20035;-54
2023/05/07 12:09:23;;;;;;;223.90;23.30;;;22.60;79.10;;;;;;4978776;28;20087;-54
2023/05/07 12:11:49;;;;;;;141.55;14.52;;;22.60;79.00;;;;;;4981169;28;20033;-53
2023/05/07 12:14:15;;;;;;;129.93;15.88;;;22.70;78.60;;;;;;5011567;28;20142;-54
2023/05/07 12:16:41;;;;;;;113.93;13.40;;;22.70;78.40;;;;;;4976575;28;20039;-54
2023/05/07 12:19:08;;;;;;;109.75;12.23;;;22.80;78.40;;;;;;4995218;28;20073;-54
2023/05/07 12:21:34;;;;;;;133.55;12.85;;;22.80;78.10;;;;;;4996818;28;20031;-54
2023/05/07 12:24:00;;;;;;;142.93;17.33;;;22.90;78.20;;;;;;4973818;28;20023;-54
2023/05/07 12:26:25;;;;;;;140.43;17.55;;;22.90;77.80;;;;;;4979204;28;20023;-54
2023/05/07 12:28:51;;;;;;;138.90;17.63;;;23.00;78.00;;;;;;5004787;28;20030;-54
2023/05/07 12:31:16;;;;;;;132.05;16.05;;;23.10;78.70;;;;;;4982016;28;20407;-54
2023/05/07 12:33:42;;;;;;;170.77;16.95;;;23.10;77.70;;;;;;4980987;28;20471;-54